sensor_id;sensor_type;location;lat;lon;timestamp;pressure;altitude;pressure_sealevel;temperature
63689;BMP280;54895;40.928;14.480;2024-02-16T00:01:39;101928.97;;;17.43
63689;BMP280;54895;40.928;14.480;2024-02-16T00:04:05;101928.69;;;17.54
63689;BMP280;54895;40.928;14.480;2024-02-16T00:06:31;101931.94;;;17.60
63689;BMP280;54895;40.928;14.480;2024-02-16T00:08:57;101931.13;;;17.44
63689;BMP280;54895;40.928;14.480;2024-02-16T00:11:24;101930.22;;;17.77
63689;BMP280;54895;40.928;14.480;2024-02-16T00:13:51;101918.88;;;17.71
63689;BMP280;54895;40.928;14.480;2024-02-16T00:16:17;101926.66;;;17.75
63689;BMP280;54895;40.928;14.480;2024-02-16T00:18:44;101917.81;;;17.67
63689;BMP280;54895;40.928;14.480;2024-02-16T00:21:10;101916.78;;;17.42
63689;BMP280;54895;40.928;14.480;2024-02-16T00:23:36;101910.94;;;17.23
63689;BMP280;54895;40.928;14.480;2024-02-16T00:26:03;101926.50;;;17.45
63689;BMP280;54895;40.928;14.480;2024-02-16T00:28:33;101920.03;;;17.48
63689;BMP280;54895;40.928;14.480;2024-02-16T00:30:59;101920.22;;;17.50
63689;BMP280;54895;40.928;14.480;2024-02-16T00:33:25;101920.91;;;17.43
63689;BMP280;54895;40.928;14.480;2024-02-16T00:35:54;101920.91;;;17.43
63689;BMP280;54895;40.928;14.480;2024-02-16T00:38:20;101928.13;;;17.48
63689;BMP280;54895;40.928;14.480;2024-02-16T00:44:47;101913.03;;;16.89
63689;BMP280;54895;40.928;14.480;2024-02-16T00:47:14;101908.44;;;16.76
63689;BMP280;54895;40.928;14.480;2024-02-16T00:49:43;101912.38;;;17.24
63689;BMP280;54895;40.928;14.480;2024-02-16T00:52:09;101909.97;;;17.41
63689;BMP280;54895;40.928;14.480;2024-02-16T00:54:39;101905.44;;;17.36
63689;BMP280;54895;40.928;14.480;2024-02-16T00:57:06;101922.81;;;17.27
63689;BMP280;54895;40.928;14.480;2024-02-16T00:59:32;101914.31;;;16.95
63689;BMP280;54895;40.928;14.480;2024-02-16T01:01:59;101917.81;;;16.83
63689;BMP280;54895;40.928;14.480;2024-02-16T01:04:25;101916.41;;;16.69
63689;BMP280;54895;40.928;14.480;2024-02-16T01:06:52;101919.78;;;16.82
63689;BMP280;54895;40.928;14.480;2024-02-16T01:09:19;101919.31;;;16.71
63689;BMP280;54895;40.928;14.480;2024-02-16T01:11:45;101917.28;;;16.64
63689;BMP280;54895;40.928;14.480;2024-02-16T01:14:12;101916.09;;;16.52
63689;BMP280;54895;40.928;14.480;2024-02-16T01:16:39;101909.91;;;16.44
63689;BMP280;54895;40.928;14.480;2024-02-16T01:19:05;101911.00;;;16.61
63689;BMP280;54895;40.928;14.480;2024-02-16T01:21:33;101915.84;;;16.63
63689;BMP280;54895;40.928;14.480;2024-02-16T01:24:00;101906.13;;;16.60
63689;BMP280;54895;40.928;14.480;2024-02-16T01:26:27;101904.16;;;16.40
63689;BMP280;54895;40.928;14.480;2024-02-16T01:28:54;101904.69;;;16.59
63689;BMP280;54895;40.928;14.480;2024-02-16T01:31:21;101900.81;;;16.67
63689;BMP280;54895;40.928;14.480;2024-02-16T01:33:47;101900.97;;;16.82
63689;BMP280;54895;40.928;14.480;2024-02-16T01:36:14;101889.84;;;16.78
63689;BMP280;54895;40.928;14.480;2024-02-16T01:38:40;101890.00;;;16.60
63689;BMP280;54895;40.928;14.480;2024-02-16T01:44:57;101886.78;;;16.82
63689;BMP280;54895;40.928;14.480;2024-02-16T01:47:24;101895.25;;;16.86
63689;BMP280;54895;40.928;14.480;2024-02-16T01:49:51;101889.59;;;16.36
63689;BMP280;54895;40.928;14.480;2024-02-16T01:52:18;101890.94;;;16.29
63689;BMP280;54895;40.928;14.480;2024-02-16T01:54:44;101884.19;;;16.15
63689;BMP280;54895;40.928;14.480;2024-02-16T01:57:11;101877.06;;;15.58
63689;BMP280;54895;40.928;14.480;2024-02-16T01:59:38;101875.91;;;15.67
63689;BMP280;54895;40.928;14.480;2024-02-16T02:02:06;101875.56;;;15.96
63689;BMP280;54895;40.928;14.480;2024-02-16T02:04:33;101880.44;;;16.31
63689;BMP280;54895;40.928;14.480;2024-02-16T02:07:00;101874.97;;;16.24
63689;BMP280;54895;40.928;14.480;2024-02-16T02:09:36;101875.41;;;16.48
63689;BMP280;54895;40.928;14.480;2024-02-16T02:12:04;101878.13;;;16.35
63689;BMP280;54895;40.928;14.480;2024-02-16T02:14:30;101873.97;;;16.47
63689;BMP280;54895;40.928;14.480;2024-02-16T02:16:56;101863.66;;;16.38
63689;BMP280;54895;40.928;14.480;2024-02-16T02:19:22;101871.28;;;16.47
63689;BMP280;54895;40.928;14.480;2024-02-16T02:21:49;101866.78;;;16.29
63689;BMP280;54895;40.928;14.480;2024-02-16T02:24:16;101872.97;;;16.78
63689;BMP280;54895;40.928;14.480;2024-02-16T02:26:42;101868.75;;;16.69
63689;BMP280;54895;40.928;14.480;2024-02-16T02:29:09;101865.34;;;16.69
63689;BMP280;54895;40.928;14.480;2024-02-16T02:31:35;101863.25;;;16.75
63689;BMP280;54895;40.928;14.480;2024-02-16T02:34:01;101864.31;;;16.72
63689;BMP280;54895;40.928;14.480;2024-02-16T02:36:27;101864.38;;;16.79
63689;BMP280;54895;40.928;14.480;2024-02-16T02:38:54;101871.31;;;16.75
63689;BMP280;54895;40.928;14.480;2024-02-16T02:45:02;101867.91;;;16.54
63689;BMP280;54895;40.928;14.480;2024-02-16T02:47:29;101877.22;;;16.53
63689;BMP280;54895;40.928;14.480;2024-02-16T02:49:56;101874.19;;;16.36
63689;BMP280;54895;40.928;14.480;2024-02-16T02:52:22;101871.06;;;16.45
63689;BMP280;54895;40.928;14.480;2024-02-16T02:54:49;101873.13;;;16.39
63689;BMP280;54895;40.928;14.480;2024-02-16T02:57:15;101868.59;;;16.47
63689;BMP280;54895;40.928;14.480;2024-02-16T02:59:42;101866.88;;;16.37
63689;BMP280;54895;40.928;14.480;2024-02-16T03:02:09;101874.41;;;16.38
63689;BMP280;54895;40.928;14.480;2024-02-16T03:04:35;101873.09;;;16.32
63689;BMP280;54895;40.928;14.480;2024-02-16T03:07:02;101873.13;;;16.39
63689;BMP280;54895;40.928;14.480;2024-02-16T03:09:29;101874.34;;;16.51
63689;BMP280;54895;40.928;14.480;2024-02-16T03:11:55;101867.34;;;16.48
63689;BMP280;54895;40.928;14.480;2024-02-16T03:14:23;101872.88;;;16.30
63689;BMP280;54895;40.928;14.480;2024-02-16T03:16:49;101882.88;;;16.29
63689;BMP280;54895;40.928;14.480;2024-02-16T03:19:16;101882.19;;;16.29
63689;BMP280;54895;40.928;14.480;2024-02-16T03:21:42;101885.44;;;16.14
63689;BMP280;54895;40.928;14.480;2024-02-16T03:24:10;101876.81;;;15.82
63689;BMP280;54895;40.928;14.480;2024-02-16T03:26:37;101875.41;;;15.55
63689;BMP280;54895;40.928;14.480;2024-02-16T03:29:03;101877.81;;;15.92
63689;BMP280;54895;40.928;14.480;2024-02-16T03:31:30;101874.34;;;15.97
63689;BMP280;54895;40.928;14.480;2024-02-16T03:33:56;101876.56;;;16.06
63689;BMP280;54895;40.928;14.480;2024-02-16T03:36:24;101880.13;;;15.88
63689;BMP280;54895;40.928;14.480;2024-02-16T03:38:50;101886.09;;;15.94
63689;BMP280;54895;40.928;14.480;2024-02-16T03:45:02;101889.38;;;16.13
63689;BMP280;54895;40.928;14.480;2024-02-16T03:47:29;101893.88;;;16.18
63689;BMP280;54895;40.928;14.480;2024-02-16T03:49:55;101892.69;;;16.06
63689;BMP280;54895;40.928;14.480;2024-02-16T03:52:21;101895.78;;;16.10
63689;BMP280;54895;40.928;14.480;2024-02-16T03:54:48;101890.38;;;16.23
63689;BMP280;54895;40.928;14.480;2024-02-16T03:57:15;101882.69;;;16.07
63689;BMP280;54895;40.928;14.480;2024-02-16T03:59:44;101884.94;;;16.16
63689;BMP280;54895;40.928;14.480;2024-02-16T04:02:11;101891.50;;;16.28
63689;BMP280;54895;40.928;14.480;2024-02-16T04:04:39;101902.41;;;16.43
63689;BMP280;54895;40.928;14.480;2024-02-16T04:07:05;101891.16;;;16.31
63689;BMP280;54895;40.928;14.480;2024-02-16T04:09:34;101901.28;;;16.38
63689;BMP280;54895;40.928;14.480;2024-02-16T04:12:01;101912.31;;;16.68
63689;BMP280;54895;40.928;14.480;2024-02-16T04:14:27;101909.28;;;16.51
63689;BMP280;54895;40.928;14.480;2024-02-16T04:16:54;101903.91;;;16.51
63689;BMP280;54895;40.928;14.480;2024-02-16T04:19:20;101904.59;;;16.31
63689;BMP280;54895;40.928;14.480;2024-02-16T04:21:46;101899.97;;;16.19
63689;BMP280;54895;40.928;14.480;2024-02-16T04:24:12;101904.53;;;16.11
63689;BMP280;54895;40.928;14.480;2024-02-16T04:26:39;101910.25;;;16.07
63689;BMP280;54895;40.928;14.480;2024-02-16T04:29:05;101913.13;;;16.09
63689;BMP280;54895;40.928;14.480;2024-02-16T04:31:31;101914.34;;;16.21
63689;BMP280;54895;40.928;14.480;2024-02-16T04:33:57;101911.84;;;16.23
63689;BMP280;54895;40.928;14.480;2024-02-16T04:36:24;101908.59;;;16.17
63689;BMP280;54895;40.928;14.480;2024-02-16T04:38:50;101908.03;;;16.32
63689;BMP280;54895;40.928;14.480;2024-02-16T04:45:18;101898.00;;;16.19
63689;BMP280;54895;40.928;14.480;2024-02-16T04:47:44;101895.22;;;15.91
63689;BMP280;54895;40.928;14.480;2024-02-16T04:50:11;101898.41;;;15.90
63689;BMP280;54895;40.928;14.480;2024-02-16T04:52:37;101897.66;;;16.02
63689;BMP280;54895;40.928;14.480;2024-02-16T04:55:06;101891.97;;;16.06
63689;BMP280;54895;40.928;14.480;2024-02-16T04:57:33;101892.16;;;16.08
63689;BMP280;54895;40.928;14.480;2024-02-16T05:00:00;101891.25;;;16.05
63689;BMP280;54895;40.928;14.480;2024-02-16T05:02:26;101883.44;;;16.15
63689;BMP280;54895;40.928;14.480;2024-02-16T05:04:53;101888.94;;;16.09
63689;BMP280;54895;40.928;14.480;2024-02-16T05:07:20;101887.44;;;16.01
63689;BMP280;54895;40.928;14.480;2024-02-16T05:09:46;101880.34;;;15.90
63689;BMP280;54895;40.928;14.480;2024-02-16T05:12:13;101886.53;;;15.85
63689;BMP280;54895;40.928;14.480;2024-02-16T05:14:40;101884.22;;;16.02
63689;BMP280;54895;40.928;14.480;2024-02-16T05:17:07;101886.31;;;15.96
63689;BMP280;54895;40.928;14.480;2024-02-16T05:19:33;101877.59;;;15.70
63689;BMP280;54895;40.928;14.480;2024-02-16T05:22:01;101869.41;;;15.62
63689;BMP280;54895;40.928;14.480;2024-02-16T05:24:27;101869.66;;;15.64
63689;BMP280;54895;40.928;14.480;2024-02-16T05:26:54;101867.25;;;15.48
63689;BMP280;54895;40.928;14.480;2024-02-16T05:29:22;101864.72;;;14.98
63689;BMP280;54895;40.928;14.480;2024-02-16T05:31:51;101865.22;;;14.83
63689;BMP280;54895;40.928;14.480;2024-02-16T05:34:18;101858.16;;;14.67
63689;BMP280;54895;40.928;14.480;2024-02-16T05:36:44;101851.66;;;14.94
63689;BMP280;54895;40.928;14.480;2024-02-16T05:39:11;101862.19;;;15.18
63689;BMP280;54895;40.928;14.480;2024-02-16T05:45:35;101865.19;;;15.80
63689;BMP280;54895;40.928;14.480;2024-02-16T05:48:01;101867.63;;;15.91
63689;BMP280;54895;40.928;14.480;2024-02-16T05:50:27;101868.03;;;15.95
63689;BMP280;54895;40.928;14.480;2024-02-16T05:52:54;101874.00;;;16.01
63689;BMP280;54895;40.928;14.480;2024-02-16T05:55:21;101876.56;;;16.06
63689;BMP280;54895;40.928;14.480;2024-02-16T05:57:50;101876.66;;;16.14
63689;BMP280;54895;40.928;14.480;2024-02-16T06:00:17;101878.06;;;15.94
63689;BMP280;54895;40.928;14.480;2024-02-16T06:02:47;101873.06;;;16.11
63689;BMP280;54895;40.928;14.480;2024-02-16T06:05:13;101874.25;;;16.23
63689;BMP280;54895;40.928;14.480;2024-02-16T06:07:40;101889.31;;;16.26
63689;BMP280;54895;40.928;14.480;2024-02-16T06:10:07;101880.03;;;16.27
63689;BMP280;54895;40.928;14.480;2024-02-16T06:12:36;101891.31;;;16.46
63689;BMP280;54895;40.928;14.480;2024-02-16T06:15:05;101890.09;;;16.47
63689;BMP280;54895;40.928;14.480;2024-02-16T06:17:31;101880.09;;;16.01
63689;BMP280;54895;40.928;14.480;2024-02-16T06:19:57;101875.38;;;15.94
63689;BMP280;54895;40.928;14.480;2024-02-16T06:22:24;101893.16;;;16.51
63689;BMP280;54895;40.928;14.480;2024-02-16T06:24:50;101894.22;;;16.48
63689;BMP280;54895;40.928;14.480;2024-02-16T06:27:16;101899.31;;;16.39
63689;BMP280;54895;40.928;14.480;2024-02-16T06:29:42;101903.03;;;16.56
63689;BMP280;54895;40.928;14.480;2024-02-16T06:32:09;101899.91;;;16.65
63689;BMP280;54895;40.928;14.480;2024-02-16T06:34:38;101901.03;;;16.90
63689;BMP280;54895;40.928;14.480;2024-02-16T06:37:04;101906.13;;;16.80
63689;BMP280;54895;40.928;14.480;2024-02-16T06:39:31;101910.06;;;17.00
63689;BMP280;54895;40.928;14.480;2024-02-16T06:41:57;101908.44;;;17.25
63689;BMP280;54895;40.928;14.480;2024-02-16T06:44:24;101910.38;;;17.17
63689;BMP280;54895;40.928;14.480;2024-02-16T06:46:50;101915.28;;;17.33
63689;BMP280;54895;40.928;14.480;2024-02-16T06:49:16;101915.41;;;17.48
63689;BMP280;54895;40.928;14.480;2024-02-16T06:51:43;101917.75;;;17.52
63689;BMP280;54895;40.928;14.480;2024-02-16T06:54:11;101925.88;;;17.67
63689;BMP280;54895;40.928;14.480;2024-02-16T06:56:37;101922.72;;;17.76
63689;BMP280;54895;40.928;14.480;2024-02-16T06:59:07;101926.25;;;18.14
63689;BMP280;54895;40.928;14.480;2024-02-16T07:01:34;101924.47;;;18.31
63689;BMP280;54895;40.928;14.480;2024-02-16T07:04:00;101936.13;;;18.19
63689;BMP280;54895;40.928;14.480;2024-02-16T07:06:29;101934.16;;;17.69
63689;BMP280;54895;40.928;14.480;2024-02-16T07:08:56;101931.66;;;17.71
63689;BMP280;54895;40.928;14.480;2024-02-16T07:11:22;101931.94;;;17.95
63689;BMP280;54895;40.928;14.480;2024-02-16T07:13:51;101936.84;;;18.12
63689;BMP280;54895;40.928;14.480;2024-02-16T07:16:17;101934.66;;;18.03
63689;BMP280;54895;40.928;14.480;2024-02-16T07:18:44;101935.59;;;18.20
63689;BMP280;54895;40.928;14.480;2024-02-16T07:21:11;101942.50;;;18.44
63689;BMP280;54895;40.928;14.480;2024-02-16T07:23:37;101944.13;;;18.62
63689;BMP280;54895;40.928;14.480;2024-02-16T07:26:04;101944.13;;;18.84
63689;BMP280;54895;40.928;14.480;2024-02-16T07:28:30;101941.97;;;18.97
63689;BMP280;54895;40.928;14.480;2024-02-16T07:30:57;101953.09;;;19.09
63689;BMP280;54895;40.928;14.480;2024-02-16T07:33:24;101947.84;;;19.26
63689;BMP280;54895;40.928;14.480;2024-02-16T07:35:51;101955.94;;;19.26
63689;BMP280;54895;40.928;14.480;2024-02-16T07:38:17;101944.53;;;19.57
63689;BMP280;54895;40.928;14.480;2024-02-16T07:40:44;101958.59;;;19.88
63689;BMP280;54895;40.928;14.480;2024-02-16T07:46:04;101954.44;;;20.26
63689;BMP280;54895;40.928;14.480;2024-02-16T07:48:30;101953.59;;;20.41
63689;BMP280;54895;40.928;14.480;2024-02-16T07:50:57;101955.81;;;20.59
63689;BMP280;54895;40.928;14.480;2024-02-16T07:53:29;101959.88;;;20.67
63689;BMP280;54895;40.928;14.480;2024-02-16T07:55:56;101964.13;;;20.78
63689;BMP280;54895;40.928;14.480;2024-02-16T07:58:24;101947.50;;;20.81
63689;BMP280;54895;40.928;14.480;2024-02-16T08:00:51;101960.16;;;20.79
63689;BMP280;54895;40.928;14.480;2024-02-16T08:03:20;101953.81;;;21.01
63689;BMP280;54895;40.928;14.480;2024-02-16T08:05:47;101955.63;;;20.98
63689;BMP280;54895;40.928;14.480;2024-02-16T08:08:13;101954.25;;;20.90
63689;BMP280;54895;40.928;14.480;2024-02-16T08:10:40;101953.69;;;20.74
63689;BMP280;54895;40.928;14.480;2024-02-16T08:13:06;101955.16;;;20.51
63689;BMP280;54895;40.928;14.480;2024-02-16T08:15:33;101955.88;;;20.68
63689;BMP280;54895;40.928;14.480;2024-02-16T08:18:00;101946.63;;;20.79
63689;BMP280;54895;40.928;14.480;2024-02-16T08:20:26;101948.78;;;20.97
63689;BMP280;54895;40.928;14.480;2024-02-16T08:22:53;101948.47;;;21.10
63689;BMP280;54895;40.928;14.480;2024-02-16T08:25:20;101949.06;;;21.35
63689;BMP280;54895;40.928;14.480;2024-02-16T08:27:46;101948.84;;;21.58
63689;BMP280;54895;40.928;14.480;2024-02-16T08:30:13;101956.63;;;21.71
63689;BMP280;54895;40.928;14.480;2024-02-16T08:32:39;101952.72;;;21.64
63689;BMP280;54895;40.928;14.480;2024-02-16T08:35:06;101956.25;;;21.57
63689;BMP280;54895;40.928;14.480;2024-02-16T08:37:33;101953.66;;;21.76
63689;BMP280;54895;40.928;14.480;2024-02-16T08:40:00;101963.47;;;21.72
63689;BMP280;54895;40.928;14.480;2024-02-16T08:45:40;101961.41;;;22.25
63689;BMP280;54895;40.928;14.480;2024-02-16T08:48:07;101957.53;;;22.54
63689;BMP280;54895;40.928;14.480;2024-02-16T08:50:33;101961.25;;;22.68
63689;BMP280;54895;40.928;14.480;2024-02-16T08:52:59;101960.69;;;22.79
63689;BMP280;54895;40.928;14.480;2024-02-16T08:55:25;101958.41;;;22.95
63689;BMP280;54895;40.928;14.480;2024-02-16T08:57:53;101964.16;;;23.18
63689;BMP280;54895;40.928;14.480;2024-02-16T09:00:20;101953.56;;;23.12
63689;BMP280;54895;40.928;14.480;2024-02-16T09:02:46;101954.72;;;23.19
63689;BMP280;54895;40.928;14.480;2024-02-16T09:05:13;101952.41;;;23.34
63689;BMP280;54895;40.928;14.480;2024-02-16T09:07:40;101967.34;;;23.64
63689;BMP280;54895;40.928;14.480;2024-02-16T09:10:06;101971.47;;;24.14
63689;BMP280;54895;40.928;14.480;2024-02-16T09:12:33;101963.56;;;24.18
63689;BMP280;54895;40.928;14.480;2024-02-16T09:15:00;101969.16;;;23.80
63689;BMP280;54895;40.928;14.480;2024-02-16T09:17:26;101974.69;;;23.42
63689;BMP280;54895;40.928;14.480;2024-02-16T09:19:52;101975.81;;;23.49
63689;BMP280;54895;40.928;14.480;2024-02-16T09:22:18;101980.31;;;23.84
63689;BMP280;54895;40.928;14.480;2024-02-16T09:24:45;101983.09;;;24.05
63689;BMP280;54895;40.928;14.480;2024-02-16T09:27:12;101978.50;;;23.68
63689;BMP280;54895;40.928;14.480;2024-02-16T09:29:39;101978.88;;;23.24
63689;BMP280;54895;40.928;14.480;2024-02-16T09:32:06;101985.00;;;23.34
63689;BMP280;54895;40.928;14.480;2024-02-16T09:34:32;101978.56;;;23.39
63689;BMP280;54895;40.928;14.480;2024-02-16T09:36:58;101985.47;;;23.80
63689;BMP280;54895;40.928;14.480;2024-02-16T09:39:24;101981.59;;;23.83
63689;BMP280;54895;40.928;14.480;2024-02-16T09:45:40;101969.94;;;23.62
63689;BMP280;54895;40.928;14.480;2024-02-16T09:48:07;101974.41;;;23.38
63689;BMP280;54895;40.928;14.480;2024-02-16T09:50:36;101974.47;;;23.78
63689;BMP280;54895;40.928;14.480;2024-02-16T09:53:04;101984.53;;;24.06
63689;BMP280;54895;40.928;14.480;2024-02-16T09:55:32;101981.50;;;23.62
63689;BMP280;54895;40.928;14.480;2024-02-16T09:58:02;101977.97;;;23.99
63689;BMP280;54895;40.928;14.480;2024-02-16T10:00:31;101979.53;;;23.53
63689;BMP280;54895;40.928;14.480;2024-02-16T10:02:58;101975.56;;;23.35
63689;BMP280;54895;40.928;14.480;2024-02-16T10:05:25;101976.69;;;23.51
63689;BMP280;54895;40.928;14.480;2024-02-16T10:07:53;101967.53;;;23.37
63689;BMP280;54895;40.928;14.480;2024-02-16T10:10:24;101971.84;;;23.02
63689;BMP280;54895;40.928;14.480;2024-02-16T10:13:06;101969.81;;;23.50
63689;BMP280;54895;40.928;14.480;2024-02-16T10:15:35;101969.44;;;23.84
63689;BMP280;54895;40.928;14.480;2024-02-16T10:18:03;101970.16;;;23.84
63689;BMP280;54895;40.928;14.480;2024-02-16T10:20:32;101971.75;;;23.78
63689;BMP280;54895;40.928;14.480;2024-02-16T10:23:10;101967.16;;;24.20
63689;BMP280;54895;40.928;14.480;2024-02-16T10:25:39;101967.19;;;24.32
63689;BMP280;54895;40.928;14.480;2024-02-16T10:28:10;101952.78;;;24.29
63689;BMP280;54895;40.928;14.480;2024-02-16T10:30:42;101952.56;;;24.37
63689;BMP280;54895;40.928;14.480;2024-02-16T10:33:12;101944.31;;;24.88
63689;BMP280;54895;40.928;14.480;2024-02-16T10:35:38;101947.84;;;24.58
63689;BMP280;54895;40.928;14.480;2024-02-16T10:38:07;101946.22;;;24.44
63689;BMP280;54895;40.928;14.480;2024-02-16T10:40:39;101934.44;;;24.51
63689;BMP280;54895;40.928;14.480;2024-02-16T10:46:11;101938.59;;;24.84
63689;BMP280;54895;40.928;14.480;2024-02-16T10:48:38;101941.50;;;24.98
63689;BMP280;54895;40.928;14.480;2024-02-16T10:51:04;101931.78;;;25.38
63689;BMP280;54895;40.928;14.480;2024-02-16T10:53:33;101933.72;;;25.15
63689;BMP280;54895;40.928;14.480;2024-02-16T10:56:00;101943.72;;;25.33
63689;BMP280;54895;40.928;14.480;2024-02-16T10:58:27;101930.78;;;25.22
63689;BMP280;54895;40.928;14.480;2024-02-16T11:00:56;101933.09;;;25.37
63689;BMP280;54895;40.928;14.480;2024-02-16T11:03:26;101937.50;;;24.99
63689;BMP280;54895;40.928;14.480;2024-02-16T11:05:54;101929.50;;;25.46
63689;BMP280;54895;40.928;14.480;2024-02-16T11:08:24;101926.44;;;25.86
63689;BMP280;54895;40.928;14.480;2024-02-16T11:13:23;101928.19;;;25.24
63689;BMP280;54895;40.928;14.480;2024-02-16T11:18:30;101921.47;;;25.94
63689;BMP280;54895;40.928;14.480;2024-02-16T11:21:03;101909.34;;;25.97
63689;BMP280;54895;40.928;14.480;2024-02-16T11:23:30;101915.13;;;26.76
63689;BMP280;54895;40.928;14.480;2024-02-16T11:26:04;101920.91;;;26.32
63689;BMP280;54895;40.928;14.480;2024-02-16T11:28:32;101909.84;;;26.66
63689;BMP280;54895;40.928;14.480;2024-02-16T11:30:59;101908.56;;;26.81
63689;BMP280;54895;40.928;14.480;2024-02-16T11:33:26;101901.88;;;26.84
63689;BMP280;54895;40.928;14.480;2024-02-16T11:36:00;101897.72;;;26.69
63689;BMP280;54895;40.928;14.480;2024-02-16T11:38:27;101892.19;;;26.81
63689;BMP280;54895;40.928;14.480;2024-02-16T11:41:04;101892.44;;;27.12
63689;BMP280;54895;40.928;14.480;2024-02-16T11:46:13;101890.75;;;27.32
63689;BMP280;54895;40.928;14.480;2024-02-16T11:48:40;101887.31;;;27.31
63689;BMP280;54895;40.928;14.480;2024-02-16T11:51:07;101888.34;;;27.38
63689;BMP280;54895;40.928;14.480;2024-02-16T11:53:34;101891.72;;;27.11
63689;BMP280;54895;40.928;14.480;2024-02-16T11:56:01;101879.50;;;26.49
63689;BMP280;54895;40.928;14.480;2024-02-16T11:58:28;101885.34;;;26.68
63689;BMP280;54895;40.928;14.480;2024-02-16T12:00:56;101885.72;;;26.13
63689;BMP280;54895;40.928;14.480;2024-02-16T12:03:26;101875.53;;;26.38
63689;BMP280;54895;40.928;14.480;2024-02-16T12:05:55;101876.72;;;26.35
63689;BMP280;54895;40.928;14.480;2024-02-16T12:08:23;101876.34;;;26.66
63689;BMP280;54895;40.928;14.480;2024-02-16T12:10:51;101872.53;;;27.23
63689;BMP280;54895;40.928;14.480;2024-02-16T12:13:19;101870.50;;;27.50
63689;BMP280;54895;40.928;14.480;2024-02-16T12:15:50;101871.31;;;27.52
63689;BMP280;54895;40.928;14.480;2024-02-16T12:18:25;101864.72;;;27.31
63689;BMP280;54895;40.928;14.480;2024-02-16T12:21:07;101862.19;;;27.61
63689;BMP280;54895;40.928;14.480;2024-02-16T12:23:33;101862.38;;;27.12
63689;BMP280;54895;40.928;14.480;2024-02-16T12:26:01;101863.13;;;26.49
63689;BMP280;54895;40.928;14.480;2024-02-16T12:28:29;101865.28;;;26.50
63689;BMP280;54895;40.928;14.480;2024-02-16T12:31:00;101856.97;;;26.73
63689;BMP280;54895;40.928;14.480;2024-02-16T12:33:27;101846.81;;;27.28
63689;BMP280;54895;40.928;14.480;2024-02-16T12:35:54;101847.06;;;27.60
63689;BMP280;54895;40.928;14.480;2024-02-16T12:38:20;101843.47;;;27.16
63689;BMP280;54895;40.928;14.480;2024-02-16T12:40:47;101848.50;;;27.48
63689;BMP280;54895;40.928;14.480;2024-02-16T12:46:31;101836.22;;;28.34
63689;BMP280;54895;40.928;14.480;2024-02-16T12:49:00;101835.41;;;28.16
63689;BMP280;54895;40.928;14.480;2024-02-16T12:51:31;101835.56;;;27.91
63689;BMP280;54895;40.928;14.480;2024-02-16T12:54:08;101836.78;;;28.01
63689;BMP280;54895;40.928;14.480;2024-02-16T12:56:49;101837.31;;;27.84
63689;BMP280;54895;40.928;14.480;2024-02-16T12:59:35;101831.53;;;27.92
63689;BMP280;54895;40.928;14.480;2024-02-16T13:02:20;101835.34;;;27.58
63689;BMP280;54895;40.928;14.480;2024-02-16T13:06:59;101833.75;;;27.26
63689;BMP280;54895;40.928;14.480;2024-02-16T13:09:25;101827.97;;;27.34
63689;BMP280;54895;40.928;14.480;2024-02-16T13:11:51;101819.56;;;27.43
63689;BMP280;54895;40.928;14.480;2024-02-16T13:14:21;101827.16;;;27.31
63689;BMP280;54895;40.928;14.480;2024-02-16T13:16:47;101825.63;;;27.42
63689;BMP280;54895;40.928;14.480;2024-02-16T13:19:13;101823.34;;;27.23
63689;BMP280;54895;40.928;14.480;2024-02-16T13:21:39;101828.28;;;27.13
63689;BMP280;54895;40.928;14.480;2024-02-16T13:24:06;101827.06;;;27.42
63689;BMP280;54895;40.928;14.480;2024-02-16T13:26:32;101829.28;;;27.33
63689;BMP280;54895;40.928;14.480;2024-02-16T13:28:58;101823.34;;;27.09
63689;BMP280;54895;40.928;14.480;2024-02-16T13:31:25;101818.97;;;26.91
63689;BMP280;54895;40.928;14.480;2024-02-16T13:33:53;101821.09;;;27.06
63689;BMP280;54895;40.928;14.480;2024-02-16T13:36:19;101820.94;;;26.77
63689;BMP280;54895;40.928;14.480;2024-02-16T13:38:46;101827.16;;;27.04
63689;BMP280;54895;40.928;14.480;2024-02-16T13:41:12;101830.13;;;27.22
63689;BMP280;54895;40.928;14.480;2024-02-16T13:46:24;101824.81;;;26.85
63689;BMP280;54895;40.928;14.480;2024-02-16T13:48:51;101824.31;;;27.02
63689;BMP280;54895;40.928;14.480;2024-02-16T13:51:17;101824.22;;;27.41
63689;BMP280;54895;40.928;14.480;2024-02-16T13:53:45;101815.13;;;27.23
63689;BMP280;54895;40.928;14.480;2024-02-16T13:56:11;101825.22;;;27.34
63689;BMP280;54895;40.928;14.480;2024-02-16T13:58:38;101814.03;;;27.28
63689;BMP280;54895;40.928;14.480;2024-02-16T14:01:06;101812.28;;;27.47
63689;BMP280;54895;40.928;14.480;2024-02-16T14:03:33;101806.50;;;27.42
63689;BMP280;54895;40.928;14.480;2024-02-16T14:06:00;101809.84;;;27.00
63689;BMP280;54895;40.928;14.480;2024-02-16T14:08:27;101811.88;;;27.40
63689;BMP280;54895;40.928;14.480;2024-02-16T14:10:54;101813.88;;;27.52
63689;BMP280;54895;40.928;14.480;2024-02-16T14:13:20;101810.66;;;27.42
63689;BMP280;54895;40.928;14.480;2024-02-16T14:15:48;101807.38;;;27.73
63689;BMP280;54895;40.928;14.480;2024-02-16T14:18:14;101802.28;;;28.10
63689;BMP280;54895;40.928;14.480;2024-02-16T14:20:41;101796.78;;;27.94
63689;BMP280;54895;40.928;14.480;2024-02-16T14:23:08;101801.34;;;27.47
63689;BMP280;54895;40.928;14.480;2024-02-16T14:25:36;101804.63;;;27.73
63689;BMP280;54895;40.928;14.480;2024-02-16T14:28:04;101807.56;;;27.63
63689;BMP280;54895;40.928;14.480;2024-02-16T14:30:30;101810.25;;;27.08
63689;BMP280;54895;40.928;14.480;2024-02-16T14:32:59;101806.31;;;27.38
63689;BMP280;54895;40.928;14.480;2024-02-16T14:35:25;101806.09;;;27.34
63689;BMP280;54895;40.928;14.480;2024-02-16T14:37:52;101808.78;;;27.60